createdAt,value
2019-03-27T00:01:24.436Z,17.90
2019-03-27T00:03:50.664Z,14.20
2019-03-27T00:06:16.890Z,17.70
2019-03-27T00:08:43.151Z,15.23
2019-03-27T00:11:09.352Z,18.90
2019-03-27T00:13:35.589Z,16.90
2019-03-27T00:16:02.109Z,16.70
2019-03-27T00:18:28.353Z,15.77
2019-03-27T00:20:54.581Z,16.67
2019-03-27T00:23:20.793Z,19.10
2019-03-27T00:25:47.040Z,26.43
2019-03-27T00:28:13.267Z,18.67
2019-03-27T00:30:39.513Z,18.20
2019-03-27T00:33:05.737Z,20.50
2019-03-27T00:35:32.005Z,16.37
2019-03-27T00:37:58.246Z,20.00
2019-03-27T00:40:24.483Z,21.70
2019-03-27T00:42:50.706Z,19.03
2019-03-27T00:45:26.533Z,20.77
2019-03-27T00:47:45.300Z,16.50
2019-03-27T00:50:11.720Z,17.30
2019-03-27T00:52:37.992Z,15.17
2019-03-27T00:55:05.936Z,17.00
2019-03-27T00:57:32.172Z,23.50
2019-03-27T00:59:58.438Z,18.07
2019-03-27T01:02:24.708Z,25.97
2019-03-27T01:04:50.929Z,21.63
2019-03-27T01:07:17.144Z,24.17
2019-03-27T01:09:43.412Z,31.40
2019-03-27T01:12:09.654Z,21.10
2019-03-27T01:14:35.879Z,24.93
2019-03-27T01:17:02.206Z,18.60
2019-03-27T01:19:28.428Z,23.10
2019-03-27T01:21:54.650Z,22.13
2019-03-27T01:24:20.895Z,22.37
2019-03-27T01:26:47.200Z,21.30
2019-03-27T01:29:13.409Z,20.50
2019-03-27T01:31:39.645Z,17.43
2019-03-27T01:34:05.884Z,22.53
2019-03-27T01:36:32.126Z,23.10
2019-03-27T01:38:58.358Z,22.10
2019-03-27T01:41:24.567Z,22.77
2019-03-27T01:43:50.849Z,18.97
2019-03-27T01:46:17.157Z,18.47
2019-03-27T01:48:43.390Z,20.30
2019-03-27T01:51:09.602Z,18.50
2019-03-27T01:53:35.837Z,20.33
2019-03-27T01:56:02.059Z,25.30
2019-03-27T01:58:28.298Z,18.83
2019-03-27T02:00:54.631Z,21.30
2019-03-27T02:03:20.849Z,19.80
2019-03-27T02:05:47.073Z,23.53
2019-03-27T02:08:13.340Z,17.40
2019-03-27T02:10:39.553Z,18.63
2019-03-27T02:13:05.780Z,23.67
2019-03-27T02:15:32.021Z,24.23
2019-03-27T02:17:58.291Z,22.50
2019-03-27T02:20:24.546Z,21.03
2019-03-27T02:22:50.782Z,25.37
2019-03-27T02:25:17.151Z,18.30
2019-03-27T02:28:05.021Z,25.43
2019-03-27T02:30:31.238Z,24.70
2019-03-27T02:32:57.815Z,23.00
2019-03-27T02:35:24.050Z,29.70
2019-03-27T02:37:50.265Z,25.50
2019-03-27T02:40:16.533Z,25.90
2019-03-27T02:42:42.759Z,21.97
2019-03-27T02:45:09.172Z,18.20
2019-03-27T02:47:35.535Z,21.73
2019-03-27T02:50:04.181Z,29.17
2019-03-27T02:52:30.446Z,26.33
2019-03-27T02:54:56.675Z,28.90
2019-03-27T02:57:22.909Z,28.53
2019-03-27T02:59:49.135Z,28.27
2019-03-27T03:02:15.359Z,22.63
2019-03-27T03:04:41.588Z,24.47
2019-03-27T03:07:08.170Z,28.80
2019-03-27T03:09:34.443Z,25.80
2019-03-27T03:12:00.673Z,27.57
2019-03-27T03:14:26.900Z,23.10
2019-03-27T03:16:53.147Z,26.10
2019-03-27T03:19:19.356Z,20.77
2019-03-27T03:21:45.584Z,27.57
2019-03-27T03:24:12.120Z,24.47
2019-03-27T03:26:38.352Z,26.83
2019-03-27T03:29:04.584Z,34.30
2019-03-27T03:31:30.811Z,24.20
2019-03-27T03:33:57.160Z,27.83
2019-03-27T03:36:23.396Z,30.30
2019-03-27T03:38:49.630Z,27.97
2019-03-27T03:41:15.906Z,33.17
2019-03-27T03:43:42.155Z,37.07
2019-03-27T03:46:08.379Z,24.77
2019-03-27T03:48:34.624Z,31.30
2019-03-27T03:51:01.945Z,31.80
2019-03-27T03:53:28.704Z,32.33
2019-03-27T03:55:57.117Z,34.20
2019-03-27T03:58:24.980Z,34.10
2019-03-27T04:00:51.623Z,31.23
2019-03-27T04:03:18.455Z,32.13
2019-03-27T04:05:44.674Z,30.40
2019-03-27T04:08:10.941Z,33.30
2019-03-27T04:10:37.165Z,34.40
2019-03-27T04:13:03.384Z,33.10
2019-03-27T04:15:29.657Z,37.60
2019-03-27T04:17:55.885Z,33.33
2019-03-27T04:20:22.114Z,32.73
2019-03-27T04:22:48.336Z,36.57
2019-03-27T04:25:14.591Z,34.00
2019-03-27T04:27:40.853Z,34.47
2019-03-27T04:30:07.771Z,44.83
2019-03-27T04:32:34.055Z,32.70
2019-03-27T04:35:00.609Z,30.03
2019-03-27T04:37:26.899Z,33.30
2019-03-27T04:39:53.125Z,35.80
2019-03-27T04:42:19.356Z,42.90
2019-03-27T04:44:45.581Z,38.83
2019-03-27T04:47:11.818Z,30.07
2019-03-27T04:49:38.067Z,34.37
2019-03-27T04:52:04.329Z,33.33
2019-03-27T04:54:30.581Z,35.07
2019-03-27T04:56:56.820Z,34.37
2019-03-27T04:59:23.048Z,31.90
2019-03-27T05:01:49.278Z,36.43
2019-03-27T05:04:15.903Z,36.57
2019-03-27T05:06:42.192Z,34.13
2019-03-27T05:09:08.414Z,33.30
2019-03-27T05:11:34.652Z,39.07
2019-03-27T05:14:00.999Z,36.70
2019-03-27T05:16:27.255Z,38.17
2019-03-27T05:18:53.492Z,34.23
2019-03-27T05:21:19.735Z,33.47
2019-03-27T05:23:46.040Z,35.40
2019-03-27T05:26:12.271Z,38.90
2019-03-27T05:28:38.546Z,40.83
2019-03-27T05:31:05.006Z,38.97
2019-03-27T05:33:32.824Z,40.93
2019-03-27T05:35:59.101Z,37.77
2019-03-27T05:38:25.330Z,38.07
2019-03-27T05:40:51.599Z,32.80
2019-03-27T05:43:17.852Z,37.13
2019-03-27T05:45:44.077Z,33.40
2019-03-27T05:48:10.324Z,28.67
2019-03-27T05:50:36.779Z,37.20
2019-03-27T05:53:03.127Z,32.97
2019-03-27T05:55:29.354Z,42.50
2019-03-27T05:57:55.670Z,34.47
2019-03-27T06:00:21.889Z,38.50
2019-03-27T06:02:48.457Z,33.10
2019-03-27T06:05:14.677Z,35.97
2019-03-27T06:07:40.903Z,31.70
2019-03-27T06:10:07.444Z,41.30
2019-03-27T06:12:33.664Z,35.53
2019-03-27T06:14:59.922Z,36.27
2019-03-27T06:17:26.168Z,34.00
2019-03-27T06:19:52.399Z,29.67
2019-03-27T06:22:18.649Z,29.20
2019-03-27T06:24:45.008Z,28.53
2019-03-27T06:27:11.356Z,28.17
2019-03-27T06:29:37.583Z,37.30
2019-03-27T06:32:03.923Z,28.27
2019-03-27T06:34:31.615Z,27.10
2019-03-27T06:36:57.847Z,29.33
2019-03-27T06:39:24.068Z,32.50
2019-03-27T06:41:50.288Z,36.40
2019-03-27T06:44:16.499Z,29.70
2019-03-27T06:46:42.743Z,32.60
2019-03-27T06:49:09.037Z,32.87
2019-03-27T06:51:40.256Z,36.63
2019-03-27T06:54:03.367Z,31.40
2019-03-27T06:56:31.002Z,33.30
2019-03-27T06:58:57.255Z,38.07
2019-03-27T07:01:23.483Z,36.37
2019-03-27T07:03:49.711Z,25.33
2019-03-27T07:06:15.965Z,33.73
2019-03-27T07:08:42.206Z,35.17
2019-03-27T07:11:10.336Z,35.23
2019-03-27T07:13:36.557Z,37.33
2019-03-27T07:16:02.910Z,32.73
2019-03-27T07:18:39.449Z,37.00
2019-03-27T07:20:57.890Z,40.00
2019-03-27T07:23:24.681Z,41.33
2019-03-27T07:25:50.973Z,42.50
2019-03-27T07:28:17.181Z,34.43
2019-03-27T07:30:43.465Z,44.07
2019-03-27T07:33:09.667Z,37.87
2019-03-27T07:35:35.887Z,34.10
2019-03-27T07:38:02.145Z,37.10
2019-03-27T07:40:28.408Z,29.47
2019-03-27T07:42:54.729Z,30.40
2019-03-27T07:45:21.172Z,31.10
2019-03-27T07:47:48.258Z,32.23
2019-03-27T07:50:15.026Z,27.97
2019-03-27T07:52:41.434Z,35.13
2019-03-27T07:55:18.740Z,31.60
2019-03-27T07:57:36.241Z,33.67
2019-03-27T08:00:16.083Z,34.97
2019-03-27T08:02:42.523Z,32.83
2019-03-27T08:05:10.035Z,43.23
2019-03-27T08:07:36.323Z,31.37
2019-03-27T08:10:05.591Z,30.70
2019-03-27T08:12:31.864Z,33.63
2019-03-27T08:14:58.702Z,30.93
2019-03-27T08:17:24.976Z,33.10
2019-03-27T08:19:51.278Z,37.93
2019-03-27T08:22:20.571Z,32.70
2019-03-27T08:24:46.830Z,36.90
2019-03-27T08:27:16.321Z,39.50
2019-03-27T08:29:42.618Z,36.57
2019-03-27T08:32:10.954Z,35.17
2019-03-27T08:34:37.304Z,35.87
2019-03-27T08:37:03.553Z,36.27
2019-03-27T08:39:29.798Z,37.73
2019-03-27T08:41:56.044Z,36.10
2019-03-27T08:44:22.270Z,33.97
2019-03-27T08:46:48.908Z,35.40
2019-03-27T08:49:21.895Z,41.63
2019-03-27T08:51:43.446Z,31.97
2019-03-27T08:54:09.769Z,33.53
2019-03-27T08:56:35.992Z,38.43
2019-03-27T08:59:02.231Z,34.80
2019-03-27T09:01:28.607Z,44.03
2019-03-27T09:03:54.832Z,44.73
2019-03-27T09:06:33.146Z,43.30
2019-03-27T09:08:49.243Z,43.83
2019-03-27T09:11:15.469Z,41.33
2019-03-27T09:13:41.704Z,41.10
2019-03-27T09:16:07.942Z,42.30
2019-03-27T09:18:34.380Z,42.27
2019-03-27T09:21:00.679Z,38.80
2019-03-27T09:23:26.984Z,43.90
2019-03-27T09:25:53.241Z,32.43
2019-03-27T09:28:19.574Z,38.60
2019-03-27T09:30:45.827Z,44.37
2019-03-27T09:33:12.148Z,36.10
2019-03-27T09:35:38.492Z,35.23
2019-03-27T09:38:04.725Z,34.73
2019-03-27T09:40:31.004Z,37.87
2019-03-27T09:42:57.248Z,31.63
2019-03-27T09:45:23.478Z,42.40
2019-03-27T09:47:49.706Z,40.37
2019-03-27T09:50:16.035Z,38.13
2019-03-27T09:52:42.268Z,33.47
2019-03-27T09:55:08.811Z,30.90
2019-03-27T09:57:35.317Z,30.80
2019-03-27T10:00:05.583Z,32.40
2019-03-27T10:02:31.800Z,31.50
2019-03-27T10:05:00.929Z,24.37
2019-03-27T10:07:34.191Z,35.93
2019-03-27T10:10:00.643Z,28.50
2019-03-27T10:12:26.871Z,28.10
2019-03-27T10:14:53.151Z,27.10
2019-03-27T10:17:19.626Z,25.07
2019-03-27T10:19:45.964Z,25.80
2019-03-27T10:22:12.299Z,28.60
2019-03-27T10:24:38.700Z,32.70
2019-03-27T10:27:04.936Z,26.27
2019-03-27T10:29:31.186Z,30.37
2019-03-27T10:31:57.459Z,29.00
2019-03-27T10:34:23.696Z,22.30
2019-03-27T10:36:49.939Z,23.33
2019-03-27T10:39:16.166Z,19.37
2019-03-27T10:41:42.424Z,23.77
2019-03-27T10:44:10.853Z,22.17
2019-03-27T10:46:37.102Z,18.20
2019-03-27T10:49:04.566Z,21.97
2019-03-27T10:51:31.095Z,19.57
2019-03-27T10:53:57.335Z,16.30
2019-03-27T10:56:24.598Z,16.43
2019-03-27T10:58:50.842Z,20.20
2019-03-27T11:01:17.140Z,22.23
2019-03-27T11:03:43.375Z,21.10
2019-03-27T11:06:09.643Z,22.77
2019-03-27T11:08:35.852Z,22.17
2019-03-27T11:11:02.172Z,18.57
2019-03-27T11:13:28.394Z,27.73
2019-03-27T11:15:54.640Z,21.73
2019-03-27T11:18:21.164Z,23.47
2019-03-27T11:20:47.414Z,26.27
2019-03-27T11:23:13.690Z,23.97
2019-03-27T11:25:40.023Z,23.53
2019-03-27T11:28:06.273Z,23.73
2019-03-27T11:30:35.119Z,23.93
2019-03-27T11:33:01.373Z,26.30
2019-03-27T11:35:27.620Z,21.50
2019-03-27T11:37:53.848Z,24.57
2019-03-27T11:40:20.094Z,25.13
2019-03-27T11:42:46.329Z,23.30
2019-03-27T11:45:12.864Z,21.30
2019-03-27T11:47:39.075Z,25.90
2019-03-27T11:50:08.433Z,22.30
2019-03-27T11:52:34.760Z,18.97
2019-03-27T11:55:01.237Z,22.53
2019-03-27T11:57:27.516Z,27.40
2019-03-27T11:59:54.489Z,23.67
2019-03-27T12:02:21.039Z,25.37
2019-03-27T12:04:47.272Z,24.27
2019-03-27T12:07:13.520Z,19.97
2019-03-27T12:09:39.749Z,17.60
2019-03-27T12:12:06.113Z,26.07
2019-03-27T12:14:32.613Z,21.10
2019-03-27T12:16:58.855Z,17.57
2019-03-27T12:19:25.090Z,21.93
2019-03-27T12:21:54.570Z,23.90
2019-03-27T12:24:19.506Z,22.10
2019-03-27T12:26:45.744Z,17.40
2019-03-27T12:29:11.985Z,23.27
2019-03-27T12:31:39.356Z,20.17
2019-03-27T12:34:05.606Z,20.40
2019-03-27T12:36:31.826Z,21.93
2019-03-27T12:38:58.051Z,19.20
2019-03-27T12:41:24.287Z,18.63
2019-03-27T12:43:50.506Z,21.90
2019-03-27T12:46:16.734Z,19.30
2019-03-27T12:48:43.009Z,16.10
2019-03-27T12:51:12.979Z,21.10
2019-03-27T12:53:37.366Z,16.77
2019-03-27T12:56:03.704Z,16.60
2019-03-27T12:58:29.926Z,19.50
2019-03-27T13:00:56.174Z,20.67
2019-03-27T13:03:22.397Z,15.80
2019-03-27T13:05:48.714Z,18.23
2019-03-27T13:08:14.938Z,17.53
2019-03-27T13:10:41.170Z,13.97
2019-03-27T13:13:07.413Z,19.63
2019-03-27T13:15:33.732Z,20.80
2019-03-27T13:17:59.971Z,28.13
2019-03-27T13:20:26.225Z,15.03
2019-03-27T13:22:52.516Z,17.03
2019-03-27T13:25:18.952Z,17.23
2019-03-27T13:27:47.472Z,17.57
2019-03-27T13:30:14.169Z,26.93
2019-03-27T13:32:40.385Z,17.40
2019-03-27T13:35:07.229Z,20.40
2019-03-27T13:37:33.457Z,17.20
2019-03-27T13:40:00.139Z,17.43
2019-03-27T13:42:26.469Z,14.40
2019-03-27T13:44:52.687Z,15.87
2019-03-27T13:47:18.922Z,14.30
2019-03-27T13:49:45.141Z,15.23
2019-03-27T13:52:11.377Z,15.40
2019-03-27T13:54:37.612Z,15.00
2019-03-27T13:57:04.206Z,16.20
2019-03-27T13:59:30.424Z,15.73
2019-03-27T14:01:56.696Z,18.17
2019-03-27T14:04:23.171Z,14.30
2019-03-27T14:06:49.405Z,20.13
2019-03-27T14:09:16.469Z,14.00
2019-03-27T14:11:42.728Z,15.67
2019-03-27T14:14:11.570Z,12.43
2019-03-27T14:16:37.132Z,15.73
2019-03-27T14:19:03.459Z,14.10
2019-03-27T14:21:29.706Z,11.77
2019-03-27T14:23:55.924Z,14.67
2019-03-27T14:26:22.302Z,13.47
2019-03-27T14:28:48.615Z,13.73
2019-03-27T14:31:14.902Z,12.67
2019-03-27T14:33:41.152Z,14.13
2019-03-27T14:36:07.380Z,14.87
2019-03-27T14:38:33.606Z,12.97
2019-03-27T14:40:59.857Z,13.10
2019-03-27T14:43:27.148Z,16.57
2019-03-27T14:45:53.544Z,13.60
2019-03-27T14:48:19.838Z,10.30
2019-03-27T14:50:46.203Z,12.93
2019-03-27T14:53:12.868Z,13.53
2019-03-27T14:55:39.248Z,11.97
2019-03-27T14:58:05.477Z,16.33
2019-03-27T15:00:31.720Z,13.60
2019-03-27T15:02:57.946Z,15.10
2019-03-27T15:05:24.226Z,11.23
2019-03-27T15:07:50.623Z,11.80
2019-03-27T15:10:16.996Z,9.07
2019-03-27T15:12:43.328Z,9.33
2019-03-27T15:15:10.451Z,10.83
2019-03-27T15:17:37.292Z,9.43
2019-03-27T15:20:05.648Z,11.33
2019-03-27T15:22:31.903Z,10.50
2019-03-27T15:24:58.121Z,10.07
2019-03-27T15:27:24.355Z,10.77
2019-03-27T15:29:50.576Z,9.83
2019-03-27T15:32:16.821Z,11.30
2019-03-27T15:34:45.365Z,10.97
2019-03-27T15:37:11.573Z,10.97
2019-03-27T15:39:37.843Z,7.60
2019-03-27T15:42:04.069Z,9.43
2019-03-27T15:44:30.297Z,8.53
2019-03-27T15:46:56.728Z,12.50
2019-03-27T15:49:23.058Z,10.80
2019-03-27T15:51:49.276Z,11.00
2019-03-27T15:54:15.527Z,9.50
2019-03-27T15:56:41.788Z,11.20
2019-03-27T15:59:08.037Z,14.10
2019-03-27T16:01:34.470Z,10.73
2019-03-27T16:04:00.729Z,7.60
2019-03-27T16:06:26.969Z,10.87
2019-03-27T16:08:53.193Z,11.60
2019-03-27T16:11:19.420Z,7.50
2019-03-27T16:13:45.723Z,10.53
2019-03-27T16:16:12.042Z,10.63
2019-03-27T16:18:38.303Z,8.97
2019-03-27T16:21:04.650Z,9.03
2019-03-27T16:23:32.390Z,14.07
2019-03-27T16:25:58.719Z,12.30
2019-03-27T16:28:25.185Z,14.10
2019-03-27T16:31:07.116Z,9.47
2019-03-27T16:36:56.510Z,8.23
2019-03-27T16:39:27.284Z,10.93
2019-03-27T16:41:53.710Z,14.80
2019-03-27T16:44:20.337Z,11.70
2019-03-27T16:46:46.909Z,8.37
2019-03-27T16:49:13.271Z,9.30
2019-03-27T16:51:39.856Z,8.97
2019-03-27T16:54:07.029Z,10.40
2019-03-27T16:56:33.261Z,7.00
2019-03-27T16:59:00.036Z,10.37
2019-03-27T17:01:26.409Z,8.40
2019-03-27T17:03:52.711Z,11.60
2019-03-27T17:06:20.886Z,13.53
2019-03-27T17:08:47.125Z,9.73
2019-03-27T17:11:13.355Z,9.27
2019-03-27T17:13:41.536Z,10.00
2019-03-27T17:16:10.025Z,10.03
2019-03-27T17:18:36.699Z,9.47
2019-03-27T17:21:03.065Z,16.93
2019-03-27T17:23:29.539Z,11.13
2019-03-27T17:25:55.843Z,14.20
2019-03-27T17:28:22.206Z,10.50
2019-03-27T17:30:48.653Z,9.50
2019-03-27T17:33:15.045Z,7.73
2019-03-27T17:35:41.420Z,10.57
2019-03-27T17:38:10.846Z,12.20
2019-03-27T17:40:35.862Z,11.70
2019-03-27T17:43:02.135Z,12.80
2019-03-27T17:45:28.475Z,13.07
2019-03-27T17:47:54.729Z,12.77
2019-03-27T17:50:21.230Z,13.37
2019-03-27T17:52:47.556Z,12.70
2019-03-27T17:55:13.936Z,12.00
2019-03-27T17:57:40.226Z,15.63
2019-03-27T18:00:09.487Z,12.97
2019-03-27T18:02:35.821Z,13.40
2019-03-27T18:05:05.406Z,14.97
2019-03-27T18:07:31.649Z,16.37
2019-03-27T18:09:57.895Z,20.77
2019-03-27T18:12:24.215Z,17.80
2019-03-27T18:14:50.475Z,16.47
2019-03-27T18:17:16.766Z,19.03
2019-03-27T18:19:43.015Z,21.10
2019-03-27T18:22:09.295Z,21.03
2019-03-27T18:24:35.557Z,16.80
2019-03-27T18:27:01.784Z,15.10
2019-03-27T18:29:29.473Z,14.30
2019-03-27T18:31:55.772Z,20.00
2019-03-27T18:34:22.016Z,25.40
2019-03-27T18:36:48.289Z,20.90
2019-03-27T18:39:14.514Z,23.23
2019-03-27T18:41:40.900Z,13.83
2019-03-27T18:44:07.279Z,16.63
2019-03-27T18:46:33.753Z,15.40
2019-03-27T18:49:00.144Z,19.60
2019-03-27T18:51:26.419Z,15.07
2019-03-27T18:53:59.461Z,14.30
2019-03-27T18:56:20.987Z,15.90
2019-03-27T18:58:47.972Z,14.40
2019-03-27T19:01:14.571Z,14.17
2019-03-27T19:03:41.018Z,18.70
2019-03-27T19:06:07.917Z,15.87
2019-03-27T19:08:34.333Z,12.97
2019-03-27T19:11:01.373Z,12.23
2019-03-27T19:13:28.389Z,11.70
2019-03-27T19:15:56.338Z,14.60
2019-03-27T19:18:23.703Z,14.10
2019-03-27T19:20:50.886Z,13.90
2019-03-27T19:23:18.146Z,13.63
2019-03-27T19:25:45.965Z,13.27
2019-03-27T19:28:14.364Z,14.17
2019-03-27T19:30:42.318Z,13.43
2019-03-27T19:33:10.287Z,17.47
2019-03-27T19:35:38.169Z,13.23
2019-03-27T19:38:06.773Z,18.33
2019-03-27T19:40:34.667Z,14.63
2019-03-27T19:43:02.642Z,14.87
2019-03-27T19:45:30.882Z,16.13
2019-03-27T19:48:04.828Z,22.23
2019-03-27T19:50:35.047Z,15.10
2019-03-27T19:53:05.450Z,15.47
2019-03-27T19:55:36.676Z,22.47
2019-03-27T20:01:02.483Z,15.93
2019-03-27T20:03:34.819Z,13.37
2019-03-27T20:06:03.413Z,19.97
2019-03-27T20:08:31.381Z,15.30
2019-03-27T20:10:59.469Z,21.93
2019-03-27T20:13:28.055Z,16.30
2019-03-27T20:15:56.519Z,21.17
2019-03-27T20:18:24.670Z,20.30
2019-03-27T20:21:44.379Z,18.20
2019-03-27T20:27:04.958Z,19.57
2019-03-27T20:29:33.650Z,19.10
2019-03-27T20:32:03.716Z,20.80
2019-03-27T20:34:31.801Z,18.83
2019-03-27T20:36:59.797Z,17.93
2019-03-27T20:39:27.824Z,17.53
2019-03-27T20:41:55.772Z,17.83
2019-03-27T20:44:23.984Z,19.47
2019-03-27T20:46:51.885Z,15.17
2019-03-27T20:49:19.969Z,17.27
2019-03-27T20:51:47.876Z,23.37
2019-03-27T20:54:15.641Z,15.80
2019-03-27T20:56:49.534Z,17.83
2019-03-27T20:59:18.484Z,16.60
2019-03-27T21:01:51.623Z,23.80
2019-03-27T21:04:20.297Z,25.90
2019-03-27T21:09:36.279Z,24.03
2019-03-27T21:12:07.012Z,21.70
2019-03-27T21:14:34.680Z,21.60
2019-03-27T21:17:01.898Z,20.00
2019-03-27T21:19:29.199Z,21.10
2019-03-27T21:21:56.200Z,19.83
2019-03-27T21:24:23.226Z,24.90
2019-03-27T21:26:50.053Z,26.57
2019-03-27T21:29:16.683Z,27.43
2019-03-27T21:31:43.423Z,25.97
2019-03-27T21:34:09.805Z,27.03
2019-03-27T21:36:36.046Z,25.07
2019-03-27T21:39:05.467Z,22.83
2019-03-27T21:41:31.710Z,25.40
2019-03-27T21:43:57.947Z,26.10
2019-03-27T21:46:24.259Z,25.77
2019-03-27T21:48:50.434Z,23.93
2019-03-27T21:51:16.707Z,25.83
2019-03-27T21:53:42.946Z,22.90
2019-03-27T21:56:09.219Z,21.83
2019-03-27T21:58:35.452Z,23.50
2019-03-27T22:01:01.833Z,24.20
2019-03-27T22:03:28.070Z,24.20
2019-03-27T22:05:54.419Z,24.03
2019-03-27T22:08:20.806Z,25.03
2019-03-27T22:10:47.046Z,22.37
2019-03-27T22:13:13.286Z,22.03
2019-03-27T22:15:39.635Z,32.27
2019-03-27T22:18:05.991Z,23.43
2019-03-27T22:20:32.300Z,20.60
2019-03-27T22:22:58.850Z,24.17
2019-03-27T22:25:35.181Z,22.37
2019-03-27T22:27:53.330Z,25.90
2019-03-27T22:30:19.616Z,26.57
2019-03-27T22:32:45.843Z,22.40
2019-03-27T22:35:12.554Z,27.07
2019-03-27T22:37:38.797Z,24.50
2019-03-27T22:40:06.402Z,19.10
2019-03-27T22:42:33.247Z,20.20
2019-03-27T22:44:59.489Z,24.73
2019-03-27T22:47:25.988Z,19.30
2019-03-27T22:49:52.254Z,34.40
2019-03-27T22:52:18.573Z,27.93
2019-03-27T22:54:44.813Z,24.77
2019-03-27T22:57:11.082Z,33.30
2019-03-27T22:59:37.630Z,23.87
2019-03-27T23:02:04.383Z,23.90
2019-03-27T23:04:30.623Z,20.93
2019-03-27T23:06:56.848Z,23.47
2019-03-27T23:09:23.286Z,16.77
2019-03-27T23:11:49.527Z,19.40
2019-03-27T23:14:15.749Z,23.27
2019-03-27T23:16:42.209Z,18.27
2019-03-27T23:19:08.584Z,19.80
2019-03-27T23:21:34.839Z,20.27
2019-03-27T23:24:01.164Z,20.13
2019-03-27T23:26:27.505Z,19.13
2019-03-27T23:28:53.794Z,22.13
2019-03-27T23:31:19.981Z,23.23
2019-03-27T23:33:46.759Z,19.23
2019-03-27T23:36:13.383Z,18.03
2019-03-27T23:38:39.824Z,22.50
2019-03-27T23:41:06.336Z,25.87
2019-03-27T23:43:32.659Z,27.47
2019-03-27T23:45:59.092Z,16.57
2019-03-27T23:48:25.341Z,18.57
2019-03-27T23:50:51.607Z,22.57
2019-03-27T23:53:17.850Z,18.17
2019-03-27T23:55:44.079Z,20.00
2019-03-27T23:58:10.339Z,22.67
